Time;durP1;ratioP1;P1;durP2;ratioP2;P2;SDS_P1;SDS_P2;PMS_P1;PMS_P2;Temp;Humidity;BMP_temperature;BMP_pressure;BME280_temperature;BME280_humidity;BME280_pressure;Samples;Min_cycle;Max_cycle;Signal;HPM_P1;HPM_P2
2023/11/28 00:02:05;;;;;;;8.80;3.10;;;;;;;10.58;37.71;99217.08;109342;1232;63817;-61
2023/11/28 00:04:32;;;;;;;6.80;2.80;;;;;;;10.55;37.68;99223.92;108741;1234;61869;-59
2023/11/28 00:06:59;;;;;;;7.50;2.80;;;;;;;10.52;37.60;99221.40;108314;1234;64400;-60
2023/11/28 00:09:26;;;;;;;6.90;3.20;;;;;;;10.44;37.70;99224.16;108749;1232;60580;-59
2023/11/28 00:11:53;;;;;;;7.60;2.80;;;;;;;10.43;37.67;99227.27;112290;1230;58210;-60
2023/11/28 00:14:20;;;;;;;6.10;1.90;;;;;;;10.40;37.57;99227.53;111725;1231;65388;-59
2023/11/28 00:16:46;;;;;;;8.90;3.60;;;;;;;10.44;37.44;99227.61;112173;1231;61621;-61
2023/11/28 00:19:13;;;;;;;7.50;2.50;;;;;;;10.60;37.22;99226.63;112345;1230;62679;-60
2023/11/28 00:21:40;;;;;;;8.00;2.30;;;;;;;10.69;37.12;99227.52;112374;1230;58074;-59
2023/11/28 00:24:07;;;;;;;9.50;4.50;;;;;;;10.75;37.18;99233.39;111961;1231;59255;-59
2023/11/28 00:26:34;;;;;;;6.80;2.50;;;;;;;10.77;37.24;99228.59;108244;1235;65222;-61
2023/11/28 00:29:01;;;;;;;7.40;3.10;;;;;;;10.77;37.37;99233.15;109533;1232;61426;-59
2023/11/28 00:31:28;;;;;;;6.10;2.30;;;;;;;10.76;37.21;99234.55;108381;1232;64052;-57
2023/11/28 00:33:56;;;;;;;5.90;1.80;;;;;;;10.73;37.31;99235.81;109223;1232;60430;-60
2023/11/28 00:36:22;;;;;;;7.80;2.60;;;;;;;10.68;37.56;99240.17;108597;1231;59602;-59
2023/11/28 00:38:49;;;;;;;7.70;2.10;;;;;;;10.65;37.56;99241.08;108704;1237;65079;-60
2023/11/28 00:41:16;;;;;;;8.30;2.60;;;;;;;10.62;37.62;99235.88;108201;1232;61519;-60
2023/11/28 00:43:43;;;;;;;7.00;2.20;;;;;;;10.57;37.71;99240.18;109345;1232;63750;-58
2023/11/28 00:46:13;;;;;;;4.10;1.30;;;;;;;10.52;37.65;99242.42;108431;1237;60427;-59
2023/11/28 00:48:40;;;;;;;6.10;2.00;;;;;;;10.46;37.78;99242.21;108631;1231;60564;-59
2023/11/28 00:51:07;;;;;;;7.60;2.40;;;;;;;10.39;37.86;99245.80;108281;1235;65583;-58
2023/11/28 00:53:34;;;;;;;6.70;2.20;;;;;;;10.36;37.89;99247.52;108756;1232;61358;-60
2023/11/28 00:56:01;;;;;;;6.50;2.10;;;;;;;10.37;37.94;99252.71;108004;1237;64434;-59
2023/11/28 00:58:28;;;;;;;4.10;1.10;;;;;;;10.32;37.89;99259.29;108800;1231;60541;-57
2023/11/28 01:00:55;;;;;;;4.90;1.30;;;;;;;10.35;37.80;99257.13;109029;1235;60502;-58
2023/11/28 01:03:23;;;;;;;5.10;1.60;;;;;;;10.36;37.87;99260.33;109589;1235;64906;-57
2023/11/28 01:05:50;;;;;;;6.60;2.80;;;;;;;10.42;37.85;99262.89;109095;1232;61642;-58
2023/11/28 01:08:17;;;;;;;5.60;1.40;;;;;;;10.57;37.56;99263.89;108857;1232;63732;-58
2023/11/28 01:10:44;;;;;;;4.30;1.20;;;;;;;10.70;37.60;99267.37;108106;1233;60464;-58
2023/11/28 01:13:11;;;;;;;6.20;2.00;;;;;;;10.81;37.59;99271.36;108796;1231;59634;-57
2023/11/28 01:15:41;;;;;;;4.60;1.40;;;;;;;10.92;37.49;99274.98;108429;1231;65080;-59
2023/11/28 01:18:07;;;;;;;5.40;2.00;;;;;;;10.94;37.48;99281.84;108162;1237;60514;-58
2023/11/28 01:20:34;;;;;;;4.80;1.80;;;;;;;10.99;37.43;99284.02;109005;1231;63894;-58
2023/11/28 01:23:02;;;;;;;5.70;1.80;;;;;;;11.00;37.41;99281.10;108691;1232;60452;-59
2023/11/28 01:25:29;;;;;;;4.00;1.20;;;;;;;11.09;37.46;99282.62;108636;1237;60615;-58
2023/11/28 01:27:56;;;;;;;5.30;2.00;;;;;;;11.14;37.64;99287.71;110379;1231;65532;-59
2023/11/28 01:30:23;;;;;;;5.40;1.40;;;;;;;11.20;37.40;99281.14;108333;1231;61263;-60
2023/11/28 01:32:50;;;;;;;6.60;1.60;;;;;;;11.26;37.57;99284.94;109005;1232;64299;-58
2023/11/28 01:35:17;;;;;;;6.20;1.50;;;;;;;11.25;37.37;99291.81;108283;1232;61303;-57
2023/11/28 01:37:43;;;;;;;6.80;2.10;;;;;;;11.33;37.58;99288.17;108870;1231;60567;-58
2023/11/28 01:40:11;;;;;;;5.60;1.60;;;;;;;11.41;37.42;99286.85;108300;1235;65069;-59
2023/11/28 01:42:38;;;;;;;7.90;2.30;;;;;;;11.37;37.08;99288.84;109211;1231;62214;-59
2023/11/28 01:45:06;;;;;;;5.60;1.60;;;;;;;11.41;37.16;99290.33;108963;1237;63985;-58
2023/11/28 01:47:34;;;;;;;5.80;2.60;;;;;;;11.47;36.78;99286.23;108895;1231;60490;-58
2023/11/28 01:50:14;;;;;;;4.20;1.60;;;;;;;11.42;36.88;99280.06;108127;1231;60623;-58
2023/11/28 01:52:40;;;;;;;5.10;1.40;;;;;;;11.46;37.52;99278.39;108001;1237;65199;-59
2023/11/28 01:55:14;;;;;;;5.40;1.60;;;;;;;11.50;37.12;99286.55;108166;1237;61445;-58
2023/11/28 01:57:43;;;;;;;5.70;1.40;;;;;;;11.53;37.23;99285.77;108412;1237;63829;-57
2023/11/28 02:00:11;;;;;;;4.80;1.70;;;;;;;11.45;37.13;99290.85;109478;1237;59183;-58
2023/11/28 02:02:41;;;;;;;4.70;1.70;;;;;;;11.45;36.85;99296.59;108343;1231;60531;-58
2023/11/28 02:05:08;;;;;;;3.50;1.00;;;;;;;11.52;36.35;99303.09;108221;1237;65378;-59
2023/11/28 02:07:35;;;;;;;6.60;2.00;;;;;;;11.57;36.57;99302.25;109587;1238;62016;-60
2023/11/28 02:10:02;;;;;;;6.50;1.60;;;;;;;11.70;37.47;99302.48;108825;1236;64390;-58
2023/11/28 02:12:32;;;;;;;8.60;1.60;;;;;;;11.81;37.58;99302.58;108556;1232;60423;-59
2023/11/28 02:14:59;;;;;;;8.10;2.10;;;;;;;11.81;37.63;99304.86;108119;1231;60512;-59
2023/11/28 02:17:25;;;;;;;6.10;2.20;;;;;;;11.81;37.72;99311.28;108617;1237;65147;-60
2023/11/28 02:19:57;;;;;;;4.00;1.60;;;;;;;11.89;37.81;99307.27;109026;1232;61497;-58
2023/11/28 02:22:25;;;;;;;3.60;1.20;;;;;;;11.86;37.80;99315.33;108399;1237;63787;-60
2023/11/28 02:24:51;;;;;;;6.70;1.50;;;;;;;11.86;37.89;99320.60;108506;1231;60511;-58
2023/11/28 02:27:18;;;;;;;4.40;1.80;;;;;;;11.85;37.84;99320.98;108668;1232;60534;-59
2023/11/28 02:29:46;;;;;;;7.90;2.50;;;;;;;11.90;37.90;99318.42;108286;1236;65092;-60
2023/11/28 02:32:12;;;;;;;3.90;1.30;;;;;;;11.93;37.73;99320.79;108385;1231;61306;-60
2023/11/28 02:34:39;;;;;;;4.80;1.40;;;;;;;11.90;37.43;99317.36;108285;1237;63887;-60
2023/11/28 02:37:07;;;;;;;6.10;1.80;;;;;;;11.88;37.30;99323.34;108207;1236;60406;-60
2023/11/28 02:39:34;;;;;;;6.10;1.60;;;;;;;11.84;37.41;99321.94;108512;1231;60429;-58
2023/11/28 02:42:01;;;;;;;6.60;1.60;;;;;;;11.87;37.52;99325.41;109463;1231;65030;-58
2023/11/28 02:44:27;;;;;;;4.60;1.20;;;;;;;11.89;37.52;99329.39;108785;1231;61445;-58
2023/11/28 02:46:54;;;;;;;5.60;2.00;;;;;;;11.93;37.56;99320.79;109307;1231;64956;-58
2023/11/28 02:49:21;;;;;;;6.50;1.50;;;;;;;11.97;37.91;99318.77;108933;1231;60414;-59
2023/11/28 02:51:48;;;;;;;7.70;1.80;;;;;;;12.02;37.84;99323.37;108251;1232;60599;-57
2023/11/28 02:54:15;;;;;;;6.30;2.00;;;;;;;12.02;37.62;99318.56;108891;1231;64908;-58
2023/11/28 02:56:41;;;;;;;6.50;2.00;;;;;;;12.15;37.66;99323.06;109122;1236;61572;-58
2023/11/28 02:59:08;;;;;;;7.30;1.70;;;;;;;12.32;37.48;99324.97;108337;1232;63933;-58
2023/11/28 03:01:35;;;;;;;5.00;1.60;;;;;;;12.50;37.62;99331.45;108326;1232;60512;-58
2023/11/28 03:04:02;;;;;;;8.20;2.30;;;;;;;12.67;37.55;99328.52;108372;1231;60481;-58
2023/11/28 03:06:29;;;;;;;5.50;1.90;;;;;;;12.82;37.65;99329.61;108800;1231;64896;-58
2023/11/28 03:08:55;;;;;;;7.70;2.00;;;;;;;12.92;37.85;99323.41;108968;1231;61477;-59
2023/11/28 03:11:22;;;;;;;6.60;2.50;;;;;;;13.00;38.05;99325.25;108636;1231;63601;-59
2023/11/28 03:13:49;;;;;;;12.10;1.80;;;;;;;13.05;37.91;99328.39;108455;1232;60556;-59
2023/11/28 03:16:15;;;;;;;5.90;1.40;;;;;;;13.09;37.96;99330.48;109037;1235;60671;-59
2023/11/28 03:18:42;;;;;;;8.50;3.40;;;;;;;13.05;37.55;99337.88;108884;1232;64991;-58
2023/11/28 03:21:09;;;;;;;8.50;2.80;;;;;;;13.03;37.65;99341.18;109511;1231;61353;-58
2023/11/28 03:23:36;;;;;;;6.80;1.70;;;;;;;13.02;37.51;99339.42;108820;1231;63839;-58
2023/11/28 03:26:02;;;;;;;6.50;2.10;;;;;;;13.02;37.77;99339.67;109391;1231;60455;-59
2023/11/28 03:28:29;;;;;;;5.90;1.90;;;;;;;13.01;37.69;99340.08;107803;1231;60403;-58
2023/11/28 03:30:56;;;;;;;7.10;3.30;;;;;;;12.93;37.30;99343.27;109600;1232;65340;-60
2023/11/28 03:33:23;;;;;;;5.70;1.50;;;;;;;12.80;37.60;99342.31;108467;1231;61384;-59
2023/11/28 03:35:50;;;;;;;5.30;1.90;;;;;;;12.84;38.06;99344.55;108911;1231;63918;-60
2023/11/28 03:38:17;;;;;;;6.80;1.80;;;;;;;12.91;38.30;99345.39;108216;1232;61246;-59
2023/11/28 03:40:43;;;;;;;7.60;2.20;;;;;;;12.97;38.12;99342.30;108985;1231;59431;-60
2023/11/28 03:43:10;;;;;;;6.30;1.80;;;;;;;12.97;38.32;99348.59;108884;1232;63918;-58
2023/11/28 03:45:37;;;;;;;5.20;1.50;;;;;;;13.03;38.31;99352.05;108587;1232;61477;-60
2023/11/28 03:48:04;;;;;;;5.70;1.90;;;;;;;13.09;38.30;99346.78;109426;1232;63967;-59
2023/11/28 03:50:31;;;;;;;5.20;1.70;;;;;;;13.10;38.41;99347.58;108820;1232;60417;-60
2023/11/28 03:52:58;;;;;;;7.00;2.10;;;;;;;13.13;38.30;99359.80;108905;1231;60535;-59
2023/11/28 03:55:25;;;;;;;7.00;1.90;;;;;;;13.15;38.28;99357.98;105248;1237;3610086;-59
2023/11/28 04:11:24;;;;;;;7.40;2.20;;;;;;;11.06;43.71;99381.49;103442;1283;605761;-58
2023/11/28 04:13:53;;;;;;;5.30;2.30;;;;;;;13.58;38.58;99383.36;102855;1267;3426312;-59
2023/11/28 04:16:20;;;;;;;7.80;4.00;;;;;;;13.62;38.72;99387.72;106626;1270;59196;-58
2023/11/28 04:18:50;;;;;;;7.70;2.60;;;;;;;13.54;38.98;99386.40;104608;1271;63483;-59
2023/11/28 04:21:21;;;;;;;4.50;1.60;;;;;;;13.56;39.27;99393.41;104452;1267;61392;-57
2023/11/28 04:23:49;;;;;;;6.60;2.70;;;;;;;13.53;39.07;99394.89;104479;1267;72708;-59
2023/11/28 04:26:17;;;;;;;7.90;2.50;;;;;;;13.46;39.48;99394.86;104855;1264;59317;-58
2023/11/28 04:28:45;;;;;;;7.60;2.70;;;;;;;13.44;39.79;99403.92;104667;1269;59967;-57
2023/11/28 04:31:17;;;;;;;7.10;2.30;;;;;;;13.42;39.77;99411.81;104541;1269;63267;-57
2023/11/28 04:33:47;;;;;;;6.80;2.70;;;;;;;13.38;39.66;99412.61;105147;1264;61365;-57
2023/11/28 04:36:15;;;;;;;8.00;2.40;;;;;;;13.37;39.80;99411.98;104902;1268;64299;-57
2023/11/28 04:38:43;;;;;;;11.70;5.20;;;;;;;13.37;40.04;99409.34;104610;1264;59851;-60
2023/11/28 04:41:12;;;;;;;9.20;3.00;;;;;;;13.38;40.12;99415.06;104497;1269;59738;-58
2023/11/28 04:43:40;;;;;;;6.80;2.70;;;;;;;13.39;40.14;99419.35;104737;1264;64110;-59
2023/11/28 04:46:08;;;;;;;7.10;2.90;;;;;;;13.42;40.25;99420.28;105658;1266;61228;-58
2023/11/28 04:48:36;;;;;;;9.80;3.50;;;;;;;13.44;40.25;99420.04;105655;1264;62470;-59
2023/11/28 04:51:05;;;;;;;13.00;4.30;;;;;;;13.46;40.18;99424.39;104912;1269;59750;-57
2023/11/28 04:53:33;;;;;;;12.70;4.10;;;;;;;13.45;40.12;99427.02;104487;1263;59714;-58
2023/11/28 04:56:01;;;;;;;10.10;4.60;;;;;;;13.48;40.16;99431.27;104968;1263;62908;-57
2023/11/28 04:58:29;;;;;;;8.30;3.50;;;;;;;13.64;40.06;99427.64;105255;1262;61813;-57
2023/11/28 05:00:57;;;;;;;11.60;3.80;;;;;;;13.79;39.88;99431.98;105051;1264;64232;-58
2023/11/28 05:03:26;;;;;;;8.30;2.50;;;;;;;13.85;39.95;99432.95;104685;1270;59669;-58
2023/11/28 05:05:54;;;;;;;9.50;3.40;;;;;;;13.92;39.99;99435.11;105009;1265;59643;-58
2023/11/28 05:08:22;;;;;;;7.30;2.40;;;;;;;13.98;39.86;99437.85;104541;1264;62917;-59
2023/11/28 05:10:50;;;;;;;7.00;2.90;;;;;;;14.03;40.05;99438.77;104784;1264;61456;-58
2023/11/28 05:13:18;;;;;;;8.50;3.60;;;;;;;14.08;39.90;99438.02;104809;1263;66192;-58
2023/11/28 05:15:46;;;;;;;6.90;2.50;;;;;;;14.07;39.92;99440.17;104484;1270;60871;-57
2023/11/28 05:18:14;;;;;;;8.90;2.60;;;;;;;13.99;40.25;99442.88;104749;1263;59667;-59
2023/11/28 05:20:42;;;;;;;7.80;3.60;;;;;;;13.99;40.37;99447.30;104876;1261;62807;-58
2023/11/28 05:23:12;;;;;;;9.00;3.80;;;;;;;14.00;40.33;99451.79;105226;1259;64021;-58
2023/11/28 05:25:39;;;;;;;9.70;4.30;;;;;;;14.02;40.42;99451.76;104880;1260;63746;-57
2023/11/28 05:28:07;;;;;;;9.90;4.50;;;;;;;14.04;40.50;99456.45;104721;1264;59717;-57
2023/11/28 05:30:35;;;;;;;6.60;2.90;;;;;;;14.07;40.48;99458.85;105364;1260;59705;-58
2023/11/28 05:33:03;;;;;;;11.60;3.50;;;;;;;14.14;40.48;99462.55;106408;1257;64085;-59
2023/11/28 05:35:31;;;;;;;9.80;3.10;;;;;;;14.19;40.52;99467.70;105125;1258;60092;-59
2023/11/28 05:37:59;;;;;;;10.30;3.00;;;;;;;14.18;40.64;99474.35;108614;1260;63687;-60
2023/11/28 05:40:27;;;;;;;7.00;2.60;;;;;;;14.15;40.43;99476.27;108759;1257;57627;-59
2023/11/28 05:42:55;;;;;;;6.90;2.70;;;;;;;14.15;40.48;99479.75;108794;1257;57394;-58
2023/11/28 05:45:29;;;;;;;12.70;4.30;;;;;;;14.17;40.60;99482.68;107787;1260;64905;-60
2023/11/28 05:48:00;;;;;;;9.00;3.50;;;;;;;14.19;40.56;99479.96;104714;1258;64097;-60
2023/11/28 05:50:29;;;;;;;10.10;3.50;;;;;;;14.26;40.61;99480.64;108757;1257;63724;-59
2023/11/28 05:52:57;;;;;;;19.00;10.20;;;;;;;14.27;40.56;99478.95;108677;1259;57708;-60
2023/11/28 05:55:25;;;;;;;25.60;12.00;;;;;;;14.38;40.38;99488.32;108637;1260;57835;-60
2023/11/28 05:57:53;;;;;;;13.30;6.20;;;;;;;14.52;40.28;99492.05;108526;1257;64673;-62
2023/11/28 06:00:21;;;;;;;12.40;4.10;;;;;;;14.64;40.17;99489.89;108757;1261;61359;-59
2023/11/28 06:02:48;;;;;;;8.90;3.60;;;;;;;14.71;40.04;99490.70;108700;1258;63880;-61
2023/11/28 06:05:17;;;;;;;9.20;2.80;;;;;;;14.74;40.16;99492.52;108662;1257;59256;-61
2023/11/28 06:07:46;;;;;;;10.10;3.30;;;;;;;14.76;40.19;99495.67;105617;1257;59962;-61
2023/11/28 06:10:15;;;;;;;9.80;4.10;;;;;;;14.75;40.36;99496.27;104766;1264;64235;-58
2023/11/28 06:12:42;;;;;;;8.40;3.00;;;;;;;14.83;40.26;99497.90;104968;1259;62163;-58
2023/11/28 06:15:10;;;;;;;8.70;3.80;;;;;;;14.83;40.30;99497.17;105018;1260;63785;-59
2023/11/28 06:17:38;;;;;;;10.80;4.60;;;;;;;14.81;40.36;99496.98;104879;1258;59643;-58
2023/11/28 06:20:06;;;;;;;9.60;3.90;;;;;;;14.77;40.56;99493.81;105414;1262;59737;-61
2023/11/28 06:22:34;;;;;;;13.40;5.50;;;;;;;14.71;40.55;99494.61;105329;1257;62853;-60
2023/11/28 06:25:03;;;;;;;20.60;8.80;;;;;;;14.65;40.48;99491.55;105298;1261;60100;-60
2023/11/28 06:27:30;;;;;;;10.20;4.30;;;;;;;14.59;40.34;99491.83;105530;1260;64297;-58
2023/11/28 06:29:58;;;;;;;10.50;4.10;;;;;;;14.56;40.40;99489.59;105032;1264;59763;-61
2023/11/28 06:32:26;;;;;;;9.90;4.60;;;;;;;14.44;40.19;99494.06;106008;1261;59676;-59
2023/11/28 06:34:54;;;;;;;11.30;4.90;;;;;;;14.34;40.24;99491.61;104603;1257;64682;-58
2023/11/28 06:37:22;;;;;;;14.40;5.60;;;;;;;14.34;40.09;99494.98;104888;1257;61455;-59
2023/11/28 06:39:51;;;;;;;8.80;4.40;;;;;;;14.34;40.01;99492.63;104679;1264;64773;-58
2023/11/28 06:42:20;;;;;;;10.60;3.50;;;;;;;14.43;39.91;99494.13;106984;1257;59724;-60
2023/11/28 06:44:48;;;;;;;9.00;4.00;;;;;;;14.42;39.80;99498.00;105577;1263;60058;-57
2023/11/28 06:47:15;;;;;;;6.90;2.90;;;;;;;14.31;39.83;99502.37;104843;1260;64071;-60
2023/11/28 06:49:44;;;;;;;9.30;4.10;;;;;;;14.20;39.94;99499.30;105043;1257;60273;-60
2023/11/28 06:52:13;;;;;;;8.50;3.80;;;;;;;14.16;40.08;99494.13;106665;1259;63895;-59
2023/11/28 06:54:42;;;;;;;7.70;3.10;;;;;;;14.15;40.09;99496.17;104874;1260;59778;-59
2023/11/28 06:57:10;;;;;;;5.70;2.60;;;;;;;14.12;40.30;99499.09;104980;1260;59785;-61
2023/11/28 06:59:37;;;;;;;8.80;3.40;;;;;;;14.14;40.36;99501.60;104802;1264;64149;-61
2023/11/28 07:02:05;;;;;;;9.50;5.00;;;;;;;14.14;40.38;99504.55;105515;1260;61427;-61
2023/11/28 07:04:33;;;;;;;17.80;8.40;;;;;;;14.12;40.16;99510.08;104833;1261;62710;-69
2023/11/28 07:07:01;;;;;;;14.40;6.60;;;;;;;14.07;40.29;99511.95;105379;1259;59689;-58
2023/11/28 07:09:28;;;;;;;44.90;14.50;;;;;;;14.05;40.26;99512.75;104954;1262;59641;-60
2023/11/28 07:11:56;;;;;;;14.90;6.50;;;;;;;14.00;40.29;99517.02;105237;1257;62837;-59
2023/11/28 07:14:24;;;;;;;10.60;5.00;;;;;;;13.96;40.22;99516.77;105272;1259;61405;-61
2023/11/28 07:16:52;;;;;;;10.60;3.90;;;;;;;13.85;40.31;99518.02;104792;1260;64355;-62
2023/11/28 07:19:19;;;;;;;7.40;3.40;;;;;;;13.79;40.66;99519.64;105456;1260;59756;-60
2023/11/28 07:21:47;;;;;;;7.60;3.10;;;;;;;13.83;40.69;99518.67;104854;1258;60037;-60
2023/11/28 07:24:14;;;;;;;8.20;3.40;;;;;;;13.90;40.68;99521.62;104976;1262;64170;-59
2023/11/28 07:26:42;;;;;;;7.00;2.80;;;;;;;14.03;40.47;99518.23;105526;1257;61430;-60
2023/11/28 07:29:10;;;;;;;8.80;2.20;;;;;;;14.31;40.32;99520.55;105111;1259;63902;-58
2023/11/28 07:31:40;;;;;;;9.70;4.30;;;;;;;14.62;40.02;99523.64;104920;1261;59833;-59
2023/11/28 07:34:08;;;;;;;9.60;4.10;;;;;;;14.73;39.97;99518.73;107428;1258;59848;-61
2023/11/28 07:36:36;;;;;;;8.40;3.00;;;;;;;14.78;40.06;99516.23;105705;1258;62813;-60
2023/11/28 07:39:04;;;;;;;13.10;3.80;;;;;;;14.82;40.12;99520.52;105401;1257;61531;-61
2023/11/28 07:41:31;;;;;;;15.00;6.20;;;;;;;14.84;40.13;99519.11;104544;1260;63702;-60
2023/11/28 07:43:59;;;;;;;12.00;3.70;;;;;;;14.86;40.08;99523.98;105211;1260;61329;-59
2023/11/28 07:46:27;;;;;;;32.40;13.00;;;;;;;14.83;40.30;99523.33;105804;1259;59573;-60
2023/11/28 07:48:55;;;;;;;26.60;10.40;;;;;;;14.82;40.47;99526.77;107348;1257;62898;-59
2023/11/28 07:51:22;;;;;;;16.50;8.00;;;;;;;14.89;40.45;99527.08;108762;1260;60102;-60
2023/11/28 07:53:50;;;;;;;10.50;4.60;;;;;;;14.72;40.90;99529.95;108741;1257;64056;-59
2023/11/28 07:56:18;;;;;;;8.60;3.90;;;;;;;14.71;41.04;99537.30;108757;1259;57491;-59
2023/11/28 07:58:45;;;;;;;8.70;3.80;;;;;;;14.86;40.82;99534.61;108784;1259;58107;-59
2023/11/28 08:01:13;;;;;;;9.80;4.00;;;;;;;14.91;40.75;99531.98;108771;1260;62837;-58
2023/11/28 08:03:41;;;;;;;11.30;4.30;;;;;;;14.93;40.62;99533.65;108721;1257;61570;-59
2023/11/28 08:06:10;;;;;;;10.60;3.20;;;;;;;14.98;40.67;99534.81;105655;1260;62611;-58
2023/11/28 08:08:38;;;;;;;10.30;4.10;;;;;;;15.07;40.75;99535.27;105867;1262;59580;-59
2023/11/28 08:11:10;;;;;;;10.50;3.60;;;;;;;15.17;40.78;99531.11;104858;1264;59570;-60
2023/11/28 08:13:39;;;;;;;8.20;3.20;;;;;;;15.23;40.74;99525.15;106027;1258;62897;-59
2023/11/28 08:16:07;;;;;;;7.90;3.20;;;;;;;15.28;40.85;99526.39;105231;1262;62552;-60
2023/11/28 08:18:35;;;;;;;8.10;3.00;;;;;;;15.35;40.86;99523.27;105019;1261;62526;-60
2023/11/28 08:21:09;;;;;;;15.50;4.70;;;;;;;15.70;40.60;99525.67;105617;1258;60629;-59
2023/11/28 08:23:37;;;;;;;9.20;3.60;;;;;;;15.69;40.52;99516.92;106066;1262;60412;-60
2023/11/28 08:26:05;;;;;;;10.40;3.50;;;;;;;15.68;40.65;99515.50;108858;1257;64098;-58
2023/11/28 08:28:35;;;;;;;6.80;3.10;;;;;;;15.67;40.73;99514.02;105369;1262;60565;-61
2023/11/28 08:31:03;;;;;;;8.50;3.90;;;;;;;15.62;40.88;99510.34;105763;1262;64312;-58
2023/11/28 08:33:31;;;;;;;9.40;3.80;;;;;;;15.61;41.00;99509.34;107755;1259;60555;-59
2023/11/28 08:35:59;;;;;;;10.20;3.60;;;;;;;15.65;40.91;99511.60;106068;1258;60492;-60
2023/11/28 08:38:29;;;;;;;11.90;3.20;;;;;;;15.70;40.87;99507.98;104842;1262;65594;-59
2023/11/28 08:40:57;;;;;;;8.20;3.20;;;;;;;15.77;40.73;99513.04;105270;1263;60339;-58
2023/11/28 08:43:25;;;;;;;7.20;3.10;;;;;;;15.89;40.83;99510.41;105172;1260;62554;-60
2023/11/28 08:45:53;;;;;;;10.50;4.30;;;;;;;16.22;40.59;99507.11;104832;1260;60539;-57
2023/11/28 08:48:21;;;;;;;8.50;3.20;;;;;;;16.37;40.53;99506.31;105266;1263;60472;-58
2023/11/28 08:50:49;;;;;;;16.50;4.10;;;;;;;16.42;41.01;99504.55;106035;1260;67251;-60
2023/11/28 08:53:18;;;;;;;9.10;4.10;;;;;;;16.42;41.09;99503.98;104852;1258;61334;-59
2023/11/28 08:55:46;;;;;;;10.50;3.70;;;;;;;16.42;41.18;99504.58;104805;1264;63886;-58
2023/11/28 08:58:14;;;;;;;9.40;4.90;;;;;;;16.40;41.19;99503.87;106239;1257;60541;-56
2023/11/28 09:00:41;;;;;;;11.70;4.40;;;;;;;16.47;40.94;99505.92;108810;1257;58161;-58
2023/11/28 09:03:09;;;;;;;8.40;3.50;;;;;;;16.44;40.96;99505.75;106911;1256;67306;-58
2023/11/28 09:05:37;;;;;;;8.10;3.10;;;;;;;16.39;41.04;99503.88;105381;1256;62935;-59
2023/11/28 09:08:05;;;;;;;6.40;2.80;;;;;;;16.39;40.92;99503.52;105402;1257;73126;-58
2023/11/28 09:10:32;;;;;;;9.50;4.10;;;;;;;16.38;41.01;99503.80;105162;1260;60463;-59
2023/11/28 09:13:00;;;;;;;11.00;3.80;;;;;;;16.43;40.90;99508.52;109020;1254;58273;-60
2023/11/28 09:15:28;;;;;;;10.40;4.60;;;;;;;16.53;40.95;99501.81;108930;1254;64943;-60
2023/11/28 09:17:56;;;;;;;9.30;4.00;;;;;;;16.65;40.78;99500.21;108978;1254;60318;-60
2023/11/28 09:20:23;;;;;;;10.10;4.50;;;;;;;16.74;40.82;99494.60;108926;1254;63910;-59
2023/11/28 09:22:51;;;;;;;11.90;4.00;;;;;;;16.77;40.74;99497.55;105658;1256;60585;-59
2023/11/28 09:25:19;;;;;;;10.60;4.20;;;;;;;16.83;40.74;99499.88;106639;1254;60375;-59
2023/11/28 09:27:47;;;;;;;12.50;5.80;;;;;;;16.85;40.82;99497.70;105433;1256;67219;-58
2023/11/28 09:30:16;;;;;;;11.90;6.50;;;;;;;16.87;40.92;99497.05;105256;1259;60399;-60
2023/11/28 09:32:44;;;;;;;11.30;5.00;;;;;;;16.92;41.03;99503.04;105618;1256;62908;-59
2023/11/28 09:35:12;;;;;;;11.10;4.10;;;;;;;16.98;41.12;99499.71;104906;1256;60693;-57
2023/11/28 09:37:40;;;;;;;7.90;3.30;;;;;;;17.09;41.08;99497.80;105367;1254;60600;-57
2023/11/28 09:40:09;;;;;;;8.40;3.50;;;;;;;17.21;41.02;99495.57;107071;1254;63715;-56
2023/11/28 09:42:37;;;;;;;8.30;3.30;;;;;;;17.23;41.10;99492.31;105578;1254;61392;-57
2023/11/28 09:45:06;;;;;;;9.20;3.30;;;;;;;17.29;41.02;99489.55;106342;1257;62518;-59
2023/11/28 09:47:38;;;;;;;8.30;3.00;;;;;;;17.39;40.94;99491.83;106385;1259;60476;-58
2023/11/28 09:50:12;;;;;;;7.70;3.30;;;;;;;17.47;41.08;99488.42;105605;1257;60507;-60
2023/11/28 09:52:43;;;;;;;7.60;3.20;;;;;;;17.55;41.09;99484.89;108945;1254;64945;-59
2023/11/28 09:55:13;;;;;;;6.10;2.40;;;;;;;17.61;41.16;99483.77;105279;1260;60442;-60
2023/11/28 09:57:43;;;;;;;9.90;3.90;;;;;;;17.71;40.78;99480.09;105212;1260;73610;-57
2023/11/28 10:00:19;;;;;;;10.00;3.60;;;;;;;17.75;40.72;99479.39;106181;1254;61618;-57
2023/11/28 10:02:50;;;;;;;6.20;3.10;;;;;;;17.80;40.74;99475.39;108185;1254;58673;-59
2023/11/28 10:05:19;;;;;;;7.50;3.30;;;;;;;17.86;40.85;99474.69;106845;1257;67000;-57
2023/11/28 10:07:54;;;;;;;6.90;2.20;;;;;;;17.91;40.77;99473.95;105308;1254;61865;-58
2023/11/28 10:10:22;;;;;;;10.20;3.80;;;;;;;17.95;40.88;99469.10;105443;1254;64262;-59
2023/11/28 10:12:51;;;;;;;5.10;1.80;;;;;;;17.99;40.75;99464.95;108970;1255;59118;-59
2023/11/28 10:15:20;;;;;;;6.20;2.60;;;;;;;17.97;40.52;99464.49;108842;1254;58383;-59
2023/11/28 10:17:49;;;;;;;7.00;2.20;;;;;;;17.97;40.57;99460.15;109110;1254;63818;-60
2023/11/28 10:20:19;;;;;;;9.70;4.20;;;;;;;18.03;40.63;99455.89;109046;1254;60120;-60
2023/11/28 10:22:54;;;;;;;7.80;4.30;;;;;;;18.12;40.60;99452.68;108987;1254;64280;-59
2023/11/28 10:25:25;;;;;;;12.30;6.10;;;;;;;18.21;40.51;99448.48;109011;1254;58419;-60
2023/11/28 10:27:58;;;;;;;8.40;3.80;;;;;;;18.26;40.60;99447.44;105362;1254;60502;-58
2023/11/28 10:30:27;;;;;;;10.10;3.70;;;;;;;18.40;40.26;99451.78;105673;1254;65289;-58
2023/11/28 10:32:58;;;;;;;8.70;3.20;;;;;;;18.46;40.16;99452.10;105621;1254;69910;-60
2023/11/28 10:35:39;;;;;;;8.50;3.50;;;;;;;18.42;40.26;99454.83;106625;1259;64548;-61
2023/11/28 10:38:13;;;;;;;8.80;3.40;;;;;;;18.40;40.33;99451.04;106650;1260;59244;-60
2023/11/28 10:40:47;;;;;;;5.60;2.90;;;;;;;18.32;40.25;99448.83;105222;1262;61003;-60
2023/11/28 10:43:15;;;;;;;5.20;1.90;;;;;;;18.26;40.45;99449.73;106250;1256;67246;-60
2023/11/28 10:45:44;;;;;;;8.10;3.40;;;;;;;18.27;40.51;99450.96;105909;1257;63183;-61
2023/11/28 10:48:12;;;;;;;12.60;4.40;;;;;;;18.25;40.54;99457.79;106535;1257;64141;-56
2023/11/28 10:50:41;;;;;;;8.10;2.30;;;;;;;18.20;40.57;99461.48;106793;1256;60320;-60
2023/11/28 10:53:11;;;;;;;6.30;2.30;;;;;;;18.25;40.62;99459.96;106554;1254;60546;-60
2023/11/28 10:55:43;;;;;;;7.60;3.00;;;;;;;18.28;40.69;99463.55;105780;1256;64090;-58
2023/11/28 10:58:17;;;;;;;8.60;3.60;;;;;;;18.31;40.65;99469.75;105432;1260;60556;-60
2023/11/28 11:00:52;;;;;;;6.50;3.40;;;;;;;18.38;40.69;99470.13;105229;1257;63684;-59
2023/11/28 11:03:22;;;;;;;8.60;3.70;;;;;;;18.43;40.48;99467.40;105351;1257;60443;-60
2023/11/28 11:05:51;;;;;;;8.20;3.20;;;;;;;18.46;40.35;99467.58;105743;1254;60595;-58
2023/11/28 11:08:19;;;;;;;7.00;2.90;;;;;;;18.36;40.36;99469.86;105122;1259;65452;-58
2023/11/28 11:10:47;;;;;;;10.70;3.80;;;;;;;18.29;40.42;99471.63;108955;1257;61477;-59
2023/11/28 11:13:18;;;;;;;11.60;4.70;;;;;;;18.33;40.42;99475.14;108404;1257;62616;-59
2023/11/28 11:16:04;;;;;;;7.70;3.40;;;;;;;18.33;40.43;99476.90;106724;1259;60438;-58
2023/11/28 11:18:46;;;;;;;8.50;4.00;;;;;;;18.35;40.72;99478.27;105472;1260;60457;-59
2023/11/28 11:21:18;;;;;;;9.80;3.70;;;;;;;18.41;40.81;99473.80;105233;1255;63663;-60
2023/11/28 11:23:48;;;;;;;8.50;3.40;;;;;;;18.47;40.72;99465.96;105617;1259;61580;-59
2023/11/28 11:26:15;;;;;;;9.80;3.80;;;;;;;18.53;40.77;99466.00;105733;1257;63771;-58
2023/11/28 11:28:43;;;;;;;9.90;4.20;;;;;;;18.45;40.79;99465.53;105514;1256;61636;-58
2023/11/28 11:31:12;;;;;;;7.80;3.40;;;;;;;18.41;40.75;99463.00;105455;1254;61662;-59
2023/11/28 11:33:40;;;;;;;7.30;3.80;;;;;;;18.32;40.84;99462.55;105206;1260;67367;-59
2023/11/28 11:36:14;;;;;;;7.80;3.10;;;;;;;18.32;40.73;99455.98;105774;1256;62081;-62
2023/11/28 11:38:42;;;;;;;7.90;3.50;;;;;;;18.30;40.87;99455.82;106042;1257;62496;-62
2023/11/28 11:41:10;;;;;;;8.00;2.90;;;;;;;18.35;41.07;99448.35;105112;1254;60533;-59
2023/11/28 11:43:39;;;;;;;8.20;3.10;;;;;;;18.44;41.07;99440.45;106345;1254;60491;-59